sensor_id;sensor_type;location;lat;lon;timestamp;pressure;altitude;pressure_sealevel;temperature;humidity
8575;BME280;4325;42.520;27.448;2023-07-13T00:01:51;101138.91;;;23.92;100.00
8575;BME280;4325;42.520;27.448;2023-07-13T00:04:19;101135.75;;;23.94;100.00
8575;BME280;4325;42.520;27.448;2023-07-13T00:06:47;101133.31;;;23.92;100.00
8575;BME280;4325;42.520;27.448;2023-07-13T00:09:16;101135.75;;;23.94;100.00
8575;BME280;4325;42.520;27.448;2023-07-13T00:11:44;101135.75;;;23.94;100.00
8575;BME280;4325;42.520;27.448;2023-07-13T00:14:13;101130.16;;;23.94;100.00
8575;BME280;4325;42.520;27.448;2023-07-13T00:16:44;101131.75;;;23.95;100.00
8575;BME280;4325;42.520;27.448;2023-07-13T00:19:12;101131.91;;;23.86;100.00
8575;BME280;4325;42.520;27.448;2023-07-13T00:21:39;101127.81;;;23.84;100.00
8575;BME280;4325;42.520;27.448;2023-07-13T00:24:07;101121.78;;;23.82;100.00
8575;BME280;4325;42.520;27.448;2023-07-13T00:26:35;101121.56;;;23.75;100.00
8575;BME280;4325;42.520;27.448;2023-07-13T00:29:02;101122.09;;;23.80;100.00
8575;BME280;4325;42.520;27.448;2023-07-13T00:31:30;101127.97;;;23.75;100.00
8575;BME280;4325;42.520;27.448;2023-07-13T00:33:58;101125.97;;;23.76;100.00
8575;BME280;4325;42.520;27.448;2023-07-13T00:36:25;101120.84;;;23.65;100.00
8575;BME280;4325;42.520;27.448;2023-07-13T00:38:52;101122.03;;;23.64;100.00
8575;BME280;4325;42.520;27.448;2023-07-13T00:41:19;101118.75;;;23.62;100.00
8575;BME280;4325;42.520;27.448;2023-07-13T00:43:48;101121.09;;;23.60;100.00
8575;BME280;4325;42.520;27.448;2023-07-13T00:46:20;101114.22;;;23.58;100.00
8575;BME280;4325;42.520;27.448;2023-07-13T00:48:48;101110.16;;;23.55;100.00
8575;BME280;4325;42.520;27.448;2023-07-13T00:51:19;101113.97;;;23.51;100.00
8575;BME280;4325;42.520;27.448;2023-07-13T00:53:47;101106.31;;;23.48;100.00
8575;BME280;4325;42.520;27.448;2023-07-13T00:56:14;101102.22;;;23.45;100.00
8575;BME280;4325;42.520;27.448;2023-07-13T00:58:42;101108.97;;;23.44;100.00
8575;BME280;4325;42.520;27.448;2023-07-13T01:01:10;101094.16;;;23.44;100.00
8575;BME280;4325;42.520;27.448;2023-07-13T01:03:38;101101.75;;;23.43;100.00
8575;BME280;4325;42.520;27.448;2023-07-13T01:06:06;101100.13;;;23.42;100.00
8575;BME280;4325;42.520;27.448;2023-07-13T01:08:33;101104.78;;;23.38;100.00
8575;BME280;4325;42.520;27.448;2023-07-13T01:11:00;101102.69;;;23.35;100.00
8575;BME280;4325;42.520;27.448;2023-07-13T01:13:27;101097.91;;;23.36;100.00
8575;BME280;4325;42.520;27.448;2023-07-13T01:15:57;101089.31;;;23.41;100.00
8575;BME280;4325;42.520;27.448;2023-07-13T01:18:27;101079.72;;;23.42;100.00
8575;BME280;4325;42.520;27.448;2023-07-13T01:20:59;101082.19;;;23.43;100.00
8575;BME280;4325;42.520;27.448;2023-07-13T01:23:27;101075.66;;;23.39;100.00
8575;BME280;4325;42.520;27.448;2023-07-13T01:25:54;101076.56;;;23.31;100.00
8575;BME280;4325;42.520;27.448;2023-07-13T01:28:22;101072.13;;;23.30;100.00
8575;BME280;4325;42.520;27.448;2023-07-13T01:30:53;101074.00;;;23.26;100.00
8575;BME280;4325;42.520;27.448;2023-07-13T01:33:20;101080.53;;;23.18;100.00
8575;BME280;4325;42.520;27.448;2023-07-13T01:35:47;101075.50;;;23.12;100.00
8575;BME280;4325;42.520;27.448;2023-07-13T01:38:18;101068.88;;;23.04;100.00
8575;BME280;4325;42.520;27.448;2023-07-13T01:40:45;101077.94;;;23.01;100.00
8575;BME280;4325;42.520;27.448;2023-07-13T01:43:13;101068.63;;;22.97;100.00
8575;BME280;4325;42.520;27.448;2023-07-13T01:45:39;101077.22;;;22.92;100.00
8575;BME280;4325;42.520;27.448;2023-07-13T01:48:06;101067.09;;;22.87;100.00
8575;BME280;4325;42.520;27.448;2023-07-13T01:50:33;101072.19;;;22.85;100.00
8575;BME280;4325;42.520;27.448;2023-07-13T01:53:00;101075.78;;;22.74;100.00
8575;BME280;4325;42.520;27.448;2023-07-13T01:55:29;101062.03;;;22.69;100.00
8575;BME280;4325;42.520;27.448;2023-07-13T01:57:56;101067.09;;;22.55;100.00
8575;BME280;4325;42.520;27.448;2023-07-13T02:00:23;101067.75;;;22.52;100.00
8575;BME280;4325;42.520;27.448;2023-07-13T02:02:51;101071.03;;;22.54;100.00
8575;BME280;4325;42.520;27.448;2023-07-13T02:05:18;101079.41;;;22.54;100.00
8575;BME280;4325;42.520;27.448;2023-07-13T02:07:45;101071.84;;;22.54;100.00
8575;BME280;4325;42.520;27.448;2023-07-13T02:10:12;101072.53;;;22.51;100.00
8575;BME280;4325;42.520;27.448;2023-07-13T02:12:41;101073.34;;;22.52;100.00
8575;BME280;4325;42.520;27.448;2023-07-13T02:15:08;101074.06;;;22.49;100.00
8575;BME280;4325;42.520;27.448;2023-07-13T02:17:36;101071.75;;;22.51;100.00
8575;BME280;4325;42.520;27.448;2023-07-13T02:20:04;101060.56;;;22.51;100.00
8575;BME280;4325;42.520;27.448;2023-07-13T02:22:31;101068.47;;;22.49;100.00
8575;BME280;4325;42.520;27.448;2023-07-13T02:24:58;101061.47;;;22.43;100.00
8575;BME280;4325;42.520;27.448;2023-07-13T02:27:26;101068.41;;;22.36;100.00
8575;BME280;4325;42.520;27.448;2023-07-13T02:29:54;101067.25;;;22.38;100.00
8575;BME280;4325;42.520;27.448;2023-07-13T02:32:21;101068.91;;;22.39;100.00
8575;BME280;4325;42.520;27.448;2023-07-13T02:34:48;101067.25;;;22.38;100.00
8575;BME280;4325;42.520;27.448;2023-07-13T02:37:14;101072.16;;;22.41;100.00
8575;BME280;4325;42.520;27.448;2023-07-13T02:39:41;101076.03;;;22.48;100.00
8575;BME280;4325;42.520;27.448;2023-07-13T02:42:08;101058.69;;;22.43;100.00
8575;BME280;4325;42.520;27.448;2023-07-13T02:44:35;101069.84;;;22.43;100.00
8575;BME280;4325;42.520;27.448;2023-07-13T02:47:03;101075.56;;;22.46;100.00
8575;BME280;4325;42.520;27.448;2023-07-13T02:49:30;101067.72;;;22.40;100.00
8575;BME280;4325;42.520;27.448;2023-07-13T02:51:57;101068.91;;;22.39;100.00
8575;BME280;4325;42.520;27.448;2023-07-13T02:54:25;101066.31;;;22.33;100.00
8575;BME280;4325;42.520;27.448;2023-07-13T02:56:51;101074.81;;;22.37;100.00
8575;BME280;4325;42.520;27.448;2023-07-13T02:59:18;101066.31;;;22.33;100.00
8575;BME280;4325;42.520;27.448;2023-07-13T03:01:45;101079.81;;;22.31;100.00
8575;BME280;4325;42.520;27.448;2023-07-13T03:04:13;101067.47;;;22.32;100.00
8575;BME280;4325;42.520;27.448;2023-07-13T03:06:44;101072.44;;;22.27;100.00
8575;BME280;4325;42.520;27.448;2023-07-13T03:09:11;101065.03;;;22.31;100.00
8575;BME280;4325;42.520;27.448;2023-07-13T03:11:39;101071.09;;;22.33;100.00
8575;BME280;4325;42.520;27.448;2023-07-13T03:14:07;101066.84;;;22.27;100.00
8575;BME280;4325;42.520;27.448;2023-07-13T03:16:34;101073.94;;;22.24;100.00
8575;BME280;4325;42.520;27.448;2023-07-13T03:19:01;101075.84;;;22.32;100.00
8575;BME280;4325;42.520;27.448;2023-07-13T03:21:30;101068.84;;;22.26;100.00
8575;BME280;4325;42.520;27.448;2023-07-13T03:23:57;101080.69;;;22.23;100.00
8575;BME280;4325;42.520;27.448;2023-07-13T03:26:24;101088.38;;;22.26;100.00
8575;BME280;4325;42.520;27.448;2023-07-13T03:28:50;101084.63;;;22.22;100.00
8575;BME280;4325;42.520;27.448;2023-07-13T03:31:21;101088.59;;;22.21;100.00
8575;BME280;4325;42.520;27.448;2023-07-13T03:33:48;101084.16;;;22.20;100.00
8575;BME280;4325;42.520;27.448;2023-07-13T03:36:18;101080.34;;;22.25;100.00
8575;BME280;4325;42.520;27.448;2023-07-13T03:38:47;101075.84;;;22.32;100.00
8575;BME280;4325;42.520;27.448;2023-07-13T03:41:15;101091.47;;;22.46;100.00
8575;BME280;4325;42.520;27.448;2023-07-13T03:43:42;101083.00;;;22.54;100.00
8575;BME280;4325;42.520;27.448;2023-07-13T03:46:09;101094.38;;;22.70;100.00
8575;BME280;4325;42.520;27.448;2023-07-13T03:48:36;101092.91;;;22.84;100.00
8575;BME280;4325;42.520;27.448;2023-07-13T03:51:05;101086.06;;;22.94;100.00
8575;BME280;4325;42.520;27.448;2023-07-13T03:53:32;101091.22;;;23.04;100.00
8575;BME280;4325;42.520;27.448;2023-07-13T03:56:00;101087.38;;;23.09;100.00
8575;BME280;4325;42.520;27.448;2023-07-13T03:58:30;101094.50;;;23.18;100.00
8575;BME280;4325;42.520;27.448;2023-07-13T04:00:58;101096.81;;;23.28;100.00
8575;BME280;4325;42.520;27.448;2023-07-13T04:03:26;101090.31;;;23.36;100.00
8575;BME280;4325;42.520;27.448;2023-07-13T04:05:54;101093.38;;;23.43;100.00
8575;BME280;4325;42.520;27.448;2023-07-13T04:08:26;101088.25;;;23.57;100.00
8575;BME280;4325;42.520;27.448;2023-07-13T04:10:53;101082.75;;;23.61;100.00
8575;BME280;4325;42.520;27.448;2023-07-13T04:13:22;101085.44;;;23.70;100.00
8575;BME280;4325;42.520;27.448;2023-07-13T04:15:49;101084.84;;;23.76;100.00
8575;BME280;4325;42.520;27.448;2023-07-13T04:18:16;101091.59;;;23.87;100.00
8575;BME280;4325;42.520;27.448;2023-07-13T04:20:43;101087.59;;;24.00;100.00
8575;BME280;4325;42.520;27.448;2023-07-13T04:23:09;101094.69;;;23.98;100.00
8575;BME280;4325;42.520;27.448;2023-07-13T04:25:36;101098.69;;;23.85;100.00
8575;BME280;4325;42.520;27.448;2023-07-13T04:28:04;101095.09;;;23.72;100.00
8575;BME280;4325;42.520;27.448;2023-07-13T04:30:32;101097.06;;;23.84;100.00
8575;BME280;4325;42.520;27.448;2023-07-13T04:33:01;101091.91;;;23.86;100.00
8575;BME280;4325;42.520;27.448;2023-07-13T04:35:27;101096.09;;;24.04;100.00
8575;BME280;4325;42.520;27.448;2023-07-13T04:37:54;101103.31;;;24.17;100.00
8575;BME280;4325;42.520;27.448;2023-07-13T04:40:21;101094.19;;;24.20;100.00
8575;BME280;4325;42.520;27.448;2023-07-13T04:42:48;101100.72;;;24.24;100.00
8575;BME280;4325;42.520;27.448;2023-07-13T04:45:15;101106.22;;;24.20;100.00
8575;BME280;4325;42.520;27.448;2023-07-13T04:47:44;101116.59;;;24.20;100.00
8575;BME280;4325;42.520;27.448;2023-07-13T04:50:13;101113.00;;;24.07;100.00
8575;BME280;4325;42.520;27.448;2023-07-13T04:52:40;101113.78;;;24.20;100.00
8575;BME280;4325;42.520;27.448;2023-07-13T04:55:08;101107.66;;;24.42;100.00
8575;BME280;4325;42.520;27.448;2023-07-13T04:57:35;101115.75;;;24.59;100.00
8575;BME280;4325;42.520;27.448;2023-07-13T05:00:02;101117.56;;;24.79;100.00
8575;BME280;4325;42.520;27.448;2023-07-13T05:02:31;101121.81;;;24.89;100.00
8575;BME280;4325;42.520;27.448;2023-07-13T05:05:00;101115.31;;;25.01;100.00
8575;BME280;4325;42.520;27.448;2023-07-13T05:07:29;101116.50;;;25.00;100.00
8575;BME280;4325;42.520;27.448;2023-07-13T05:09:56;101115.69;;;25.15;100.00
8575;BME280;4325;42.520;27.448;2023-07-13T05:12:23;101116.69;;;25.22;100.00
8575;BME280;4325;42.520;27.448;2023-07-13T05:14:49;101109.47;;;25.37;100.00
8575;BME280;4325;42.520;27.448;2023-07-13T05:17:16;101110.94;;;25.31;100.00
8575;BME280;4325;42.520;27.448;2023-07-13T05:19:43;101118.53;;;25.46;100.00
8575;BME280;4325;42.520;27.448;2023-07-13T05:22:11;101120.28;;;25.50;100.00
8575;BME280;4325;42.520;27.448;2023-07-13T05:24:38;101124.59;;;25.64;100.00
8575;BME280;4325;42.520;27.448;2023-07-13T05:27:05;101130.28;;;25.67;100.00
8575;BME280;4325;42.520;27.448;2023-07-13T05:29:32;101127.88;;;25.50;100.00
8575;BME280;4325;42.520;27.448;2023-07-13T05:31:59;101123.94;;;25.39;100.00
8575;BME280;4325;42.520;27.448;2023-07-13T05:34:26;101128.69;;;25.50;100.00
8575;BME280;4325;42.520;27.448;2023-07-13T05:36:53;101128.81;;;25.73;100.00
8575;BME280;4325;42.520;27.448;2023-07-13T05:39:21;101130.66;;;26.00;100.00
8575;BME280;4325;42.520;27.448;2023-07-13T05:41:48;101126.75;;;26.20;100.00
8575;BME280;4325;42.520;27.448;2023-07-13T05:44:15;101126.19;;;26.31;100.00
8575;BME280;4325;42.520;27.448;2023-07-13T05:46:42;101130.28;;;26.37;100.00
8575;BME280;4325;42.520;27.448;2023-07-13T05:49:09;101133.78;;;26.49;100.00
8575;BME280;4325;42.520;27.448;2023-07-13T05:51:36;101134.16;;;26.67;100.00
8575;BME280;4325;42.520;27.448;2023-07-13T05:54:03;101137.31;;;26.84;100.00
8575;BME280;4325;42.520;27.448;2023-07-13T05:56:31;101134.59;;;26.88;100.00
8575;BME280;4325;42.520;27.448;2023-07-13T05:58:58;101134.81;;;26.99;100.00
8575;BME280;4325;42.520;27.448;2023-07-13T06:01:25;101135.28;;;27.04;100.00
8575;BME280;4325;42.520;27.448;2023-07-13T06:03:52;101139.94;;;27.16;100.00
8575;BME280;4325;42.520;27.448;2023-07-13T06:06:18;101143.94;;;27.15;100.00
8575;BME280;4325;42.520;27.448;2023-07-13T06:08:45;101146.63;;;27.30;100.00
8575;BME280;4325;42.520;27.448;2023-07-13T06:11:15;101147.03;;;27.52;100.00
8575;BME280;4325;42.520;27.448;2023-07-13T06:13:43;101146.09;;;27.67;100.00
8575;BME280;4325;42.520;27.448;2023-07-13T06:16:11;101141.97;;;27.87;100.00
8575;BME280;4325;42.520;27.448;2023-07-13T06:18:38;101146.41;;;28.14;100.00
8575;BME280;4325;42.520;27.448;2023-07-13T06:21:06;101137.97;;;28.14;100.00
8575;BME280;4325;42.520;27.448;2023-07-13T06:23:34;101145.56;;;28.10;100.00
8575;BME280;4325;42.520;27.448;2023-07-13T06:26:01;101140.88;;;28.21;100.00
8575;BME280;4325;42.520;27.448;2023-07-13T06:28:28;101130.50;;;28.25;100.00
8575;BME280;4325;42.520;27.448;2023-07-13T06:30:58;101137.75;;;28.26;100.00
8575;BME280;4325;42.520;27.448;2023-07-13T06:33:26;101125.53;;;28.15;100.00
8575;BME280;4325;42.520;27.448;2023-07-13T06:35:53;101131.09;;;28.11;100.00
8575;BME280;4325;42.520;27.448;2023-07-13T06:38:21;101125.53;;;28.15;100.00
8575;BME280;4325;42.520;27.448;2023-07-13T06:40:48;101125.56;;;28.19;100.00
8575;BME280;4325;42.520;27.448;2023-07-13T06:43:15;101116.19;;;28.37;100.00
8575;BME280;4325;42.520;27.448;2023-07-13T06:45:44;101124.66;;;28.70;100.00
8575;BME280;4325;42.520;27.448;2023-07-13T06:48:14;101134.75;;;29.08;100.00
8575;BME280;4325;42.520;27.448;2023-07-13T06:50:41;101130.84;;;29.20;100.00
8575;BME280;4325;42.520;27.448;2023-07-13T06:53:08;101115.25;;;28.96;100.00
8575;BME280;4325;42.520;27.448;2023-07-13T06:55:35;101119.91;;;29.15;100.00
8575;BME280;4325;42.520;27.448;2023-07-13T06:58:02;101124.56;;;29.37;100.00
8575;BME280;4325;42.520;27.448;2023-07-13T07:00:29;101119.75;;;29.41;100.00
8575;BME280;4325;42.520;27.448;2023-07-13T07:02:56;101110.16;;;29.49;100.00
8575;BME280;4325;42.520;27.448;2023-07-13T07:05:24;101114.53;;;29.39;100.00
8575;BME280;4325;42.520;27.448;2023-07-13T07:07:53;101105.63;;;29.37;100.00
8575;BME280;4325;42.520;27.448;2023-07-13T07:10:20;101109.44;;;29.59;97.92
8575;BME280;4325;42.520;27.448;2023-07-13T07:12:48;101111.13;;;29.74;96.31
8575;BME280;4325;42.520;27.448;2023-07-13T07:15:15;101111.25;;;29.85;96.47
8575;BME280;4325;42.520;27.448;2023-07-13T07:17:41;101111.00;;;30.11;94.68
8575;BME280;4325;42.520;27.448;2023-07-13T07:20:10;101111.91;;;30.33;91.62
8575;BME280;4325;42.520;27.448;2023-07-13T07:22:38;101104.41;;;30.65;86.75
8575;BME280;4325;42.520;27.448;2023-07-13T07:25:05;101109.28;;;30.75;85.74
8575;BME280;4325;42.520;27.448;2023-07-13T07:27:32;101103.22;;;30.66;86.74
8575;BME280;4325;42.520;27.448;2023-07-13T07:30:00;101113.28;;;30.60;86.79
8575;BME280;4325;42.520;27.448;2023-07-13T07:32:28;101105.19;;;30.51;84.72
8575;BME280;4325;42.520;27.448;2023-07-13T07:34:55;101114.06;;;30.57;83.21
8575;BME280;4325;42.520;27.448;2023-07-13T07:37:22;101106.06;;;30.73;82.76
8575;BME280;4325;42.520;27.448;2023-07-13T07:39:50;101103.72;;;30.96;82.11
8575;BME280;4325;42.520;27.448;2023-07-13T07:42:17;101110.22;;;31.14;80.86
8575;BME280;4325;42.520;27.448;2023-07-13T07:44:44;101118.31;;;31.26;76.50
8575;BME280;4325;42.520;27.448;2023-07-13T07:47:11;101110.63;;;31.41;76.15
8575;BME280;4325;42.520;27.448;2023-07-13T07:49:38;101108.63;;;31.59;72.65
8575;BME280;4325;42.520;27.448;2023-07-13T07:52:06;101113.84;;;31.32;72.35
8575;BME280;4325;42.520;27.448;2023-07-13T07:54:33;101104.16;;;31.26;71.52
8575;BME280;4325;42.520;27.448;2023-07-13T07:57:01;101108.66;;;31.49;69.80
8575;BME280;4325;42.520;27.448;2023-07-13T07:59:28;101106.19;;;31.72;69.07
8575;BME280;4325;42.520;27.448;2023-07-13T08:01:55;101102.94;;;32.05;67.48
8575;BME280;4325;42.520;27.448;2023-07-13T08:04:21;101093.94;;;32.31;63.77
8575;BME280;4325;42.520;27.448;2023-07-13T08:06:48;101098.72;;;32.48;61.93
8575;BME280;4325;42.520;27.448;2023-07-13T08:09:15;101100.28;;;32.64;59.16
8575;BME280;4325;42.520;27.448;2023-07-13T08:11:42;101100.66;;;32.69;58.86
8575;BME280;4325;42.520;27.448;2023-07-13T08:14:10;101101.75;;;32.86;57.32
8575;BME280;4325;42.520;27.448;2023-07-13T08:16:37;101100.94;;;32.92;56.06
8575;BME280;4325;42.520;27.448;2023-07-13T08:19:04;101091.94;;;33.01;54.96
8575;BME280;4325;42.520;27.448;2023-07-13T08:21:31;101092.72;;;33.08;53.36
8575;BME280;4325;42.520;27.448;2023-07-13T08:23:58;101086.53;;;33.24;53.34
8575;BME280;4325;42.520;27.448;2023-07-13T08:26:25;101094.84;;;33.49;52.44
8575;BME280;4325;42.520;27.448;2023-07-13T08:28:52;101090.41;;;33.44;52.07
8575;BME280;4325;42.520;27.448;2023-07-13T08:31:20;101087.34;;;33.72;51.54
8575;BME280;4325;42.520;27.448;2023-07-13T08:33:48;101086.72;;;33.92;50.55
8575;BME280;4325;42.520;27.448;2023-07-13T08:36:15;101087.31;;;34.47;48.80
8575;BME280;4325;42.520;27.448;2023-07-13T08:38:42;101089.78;;;34.45;48.54
8575;BME280;4325;42.520;27.448;2023-07-13T08:41:14;101091.28;;;35.13;46.21
8575;BME280;4325;42.520;27.448;2023-07-13T08:43:42;101082.09;;;36.18;42.91
8575;BME280;4325;42.520;27.448;2023-07-13T08:46:14;101088.28;;;37.56;40.91
8575;BME280;4325;42.520;27.448;2023-07-13T08:48:47;101079.97;;;38.77;37.57
8575;BME280;4325;42.520;27.448;2023-07-13T08:51:27;101079.91;;;39.65;37.06
8575;BME280;4325;42.520;27.448;2023-07-13T08:53:58;101071.53;;;39.92;37.16
8575;BME280;4325;42.520;27.448;2023-07-13T08:56:28;101064.88;;;39.95;36.87
8575;BME280;4325;42.520;27.448;2023-07-13T08:58:57;101063.84;;;41.83;33.37
8575;BME280;4325;42.520;27.448;2023-07-13T09:01:29;101064.75;;;42.43;30.89
8575;BME280;4325;42.520;27.448;2023-07-13T09:04:05;101068.47;;;42.35;30.33
8575;BME280;4325;42.520;27.448;2023-07-13T09:06:42;101073.44;;;42.07;31.76
8575;BME280;4325;42.520;27.448;2023-07-13T09:09:21;101062.03;;;43.32;30.40
8575;BME280;4325;42.520;27.448;2023-07-13T09:11:58;101057.44;;;44.12;28.91
8575;BME280;4325;42.520;27.448;2023-07-13T09:14:42;101055.06;;;44.10;28.89
8575;BME280;4325;42.520;27.448;2023-07-13T09:17:14;101048.72;;;43.82;29.29
8575;BME280;4325;42.520;27.448;2023-07-13T09:19:46;101050.94;;;44.02;28.84
8575;BME280;4325;42.520;27.448;2023-07-13T09:22:18;101048.19;;;44.37;28.15
8575;BME280;4325;42.520;27.448;2023-07-13T09:25:00;101041.94;;;45.37;27.02
8575;BME280;4325;42.520;27.448;2023-07-13T09:27:33;101050.44;;;44.04;28.40
8575;BME280;4325;42.520;27.448;2023-07-13T09:30:17;101043.94;;;43.56;28.98
8575;BME280;4325;42.520;27.448;2023-07-13T09:32:51;101036.66;;;45.01;27.22
8575;BME280;4325;42.520;27.448;2023-07-13T09:35:23;101043.72;;;44.65;27.24
8575;BME280;4325;42.520;27.448;2023-07-13T09:37:57;101046.66;;;43.97;27.95
8575;BME280;4325;42.520;27.448;2023-07-13T09:40:46;101039.47;;;43.93;28.30
8575;BME280;4325;42.520;27.448;2023-07-13T09:43:17;101033.69;;;43.78;28.50
8575;BME280;4325;42.520;27.448;2023-07-13T09:45:46;101034.09;;;43.62;29.35
8575;BME280;4325;42.520;27.448;2023-07-13T09:48:15;101048.63;;;44.06;28.26
8575;BME280;4325;42.520;27.448;2023-07-13T09:50:44;101030.47;;;43.76;28.31
8575;BME280;4325;42.520;27.448;2023-07-13T09:53:12;101027.19;;;44.51;27.41
8575;BME280;4325;42.520;27.448;2023-07-13T09:55:40;101015.78;;;44.91;26.88
8575;BME280;4325;42.520;27.448;2023-07-13T09:58:11;101011.00;;;44.88;27.25
8575;BME280;4325;42.520;27.448;2023-07-13T10:00:38;101003.66;;;44.43;26.89
8575;BME280;4325;42.520;27.448;2023-07-13T10:03:16;100997.91;;;44.14;27.29
8575;BME280;4325;42.520;27.448;2023-07-13T10:05:46;101007.28;;;44.24;27.05
8575;BME280;4325;42.520;27.448;2023-07-13T10:08:18;100998.31;;;45.00;26.88
8575;BME280;4325;42.520;27.448;2023-07-13T10:10:46;100987.63;;;45.67;25.94
8575;BME280;4325;42.520;27.448;2023-07-13T10:13:27;100996.03;;;45.45;25.94
8575;BME280;4325;42.520;27.448;2023-07-13T10:15:55;100987.34;;;45.65;25.61
8575;BME280;4325;42.520;27.448;2023-07-13T10:18:25;100986.00;;;45.86;25.72
8575;BME280;4325;42.520;27.448;2023-07-13T10:21:00;100978.50;;;45.13;26.20
8575;BME280;4325;42.520;27.448;2023-07-13T10:23:36;100966.47;;;45.35;25.86
8575;BME280;4325;42.520;27.448;2023-07-13T10:26:03;100968.97;;;45.68;24.83
8575;BME280;4325;42.520;27.448;2023-07-13T10:28:35;100953.06;;;45.58;24.87
8575;BME280;4325;42.520;27.448;2023-07-13T10:31:06;100947.13;;;45.47;25.42
8575;BME280;4325;42.520;27.448;2023-07-13T10:33:37;100954.38;;;44.82;25.66
8575;BME280;4325;42.520;27.448;2023-07-13T10:36:30;100942.34;;;44.48;26.23
8575;BME280;4325;42.520;27.448;2023-07-13T10:39:02;100943.75;;;44.24;25.57
8575;BME280;4325;42.520;27.448;2023-07-13T10:41:31;100950.25;;;43.66;26.36
8575;BME280;4325;42.520;27.448;2023-07-13T10:44:00;100931.63;;;44.69;27.81
8575;BME280;4325;42.520;27.448;2023-07-13T10:46:29;100937.13;;;45.22;27.09
8575;BME280;4325;42.520;27.448;2023-07-13T10:48:58;100934.13;;;46.71;24.97
8575;BME280;4325;42.520;27.448;2023-07-13T10:51:29;100934.22;;;46.93;24.67
8575;BME280;4325;42.520;27.448;2023-07-13T10:54:19;100937.75;;;47.84;23.15
8575;BME280;4325;42.520;27.448;2023-07-13T10:56:50;100931.75;;;48.26;21.36
8575;BME280;4325;42.520;27.448;2023-07-13T10:59:23;100922.53;;;47.19;22.91
8575;BME280;4325;42.520;27.448;2023-07-13T11:01:57;100924.31;;;48.42;22.04
8575;BME280;4325;42.520;27.448;2023-07-13T11:04:25;100923.00;;;48.04;22.31
8575;BME280;4325;42.520;27.448;2023-07-13T11:06:59;100914.66;;;47.36;22.75
8575;BME280;4325;42.520;27.448;2023-07-13T11:09:38;100917.69;;;47.74;22.82
8575;BME280;4325;42.520;27.448;2023-07-13T11:12:30;100911.34;;;48.59;21.43
8575;BME280;4325;42.520;27.448;2023-07-13T11:15:09;100911.38;;;48.09;22.72
8575;BME280;4325;42.520;27.448;2023-07-13T11:17:46;100907.16;;;48.38;23.47
8575;BME280;4325;42.520;27.448;2023-07-13T11:20:37;100907.59;;;50.20;22.23
8575;BME280;4325;42.520;27.448;2023-07-13T11:26:02;100904.94;;;53.04;20.09
8575;BME280;4325;42.520;27.448;2023-07-13T11:28:31;100903.81;;;53.20;20.42
8575;BME280;4325;42.520;27.448;2023-07-13T11:31:10;100911.47;;;52.70;19.42
8575;BME280;4325;42.520;27.448;2023-07-13T11:33:56;100913.25;;;52.47;20.09
8575;BME280;4325;42.520;27.448;2023-07-13T11:36:30;100903.28;;;52.11;19.73
8575;BME280;4325;42.520;27.448;2023-07-13T11:39:02;100899.53;;;50.61;21.98
8575;BME280;4325;42.520;27.448;2023-07-13T11:41:34;100900.66;;;50.53;21.56
8575;BME280;4325;42.520;27.448;2023-07-13T11:44:07;100906.66;;;49.71;22.62
8575;BME280;4325;42.520;27.448;2023-07-13T11:46:34;100913.28;;;49.20;23.34
8575;BME280;4325;42.520;27.448;2023-07-13T11:49:01;100906.75;;;50.79;21.89
8575;BME280;4325;42.520;27.448;2023-07-13T11:51:33;100899.06;;;51.93;20.68
8575;BME280;4325;42.520;27.448;2023-07-13T11:54:04;100906.31;;;53.03;20.03
8575;BME280;4325;42.520;27.448;2023-07-13T11:56:32;100899.28;;;53.66;19.52
8575;BME280;4325;42.520;27.448;2023-07-13T11:59:04;100906.94;;;53.09;19.87
8575;BME280;4325;42.520;27.448;2023-07-13T12:01:32;100904.44;;;51.89;20.84
8575;BME280;4325;42.520;27.448;2023-07-13T12:04:00;100897.31;;;52.03;20.99
8575;BME280;4325;42.520;27.448;2023-07-13T12:06:29;100894.44;;;51.66;21.02
8575;BME280;4325;42.520;27.448;2023-07-13T12:08:57;100887.72;;;51.15;21.40
8575;BME280;4325;42.520;27.448;2023-07-13T12:11:27;100894.25;;;52.09;20.91
8575;BME280;4325;42.520;27.448;2023-07-13T12:13:54;100893.22;;;53.04;20.12
8575;BME280;4325;42.520;27.448;2023-07-13T12:16:26;100895.03;;;54.08;20.02
8575;BME280;4325;42.520;27.448;2023-07-13T12:18:54;100894.31;;;53.40;20.46
8575;BME280;4325;42.520;27.448;2023-07-13T12:21:30;100896.88;;;53.44;20.35
8575;BME280;4325;42.520;27.448;2023-07-13T12:23:57;100895.53;;;53.78;20.56
8575;BME280;4325;42.520;27.448;2023-07-13T12:26:29;100892.25;;;54.03;20.29
8575;BME280;4325;42.520;27.448;2023-07-13T12:28:59;100888.06;;;52.97;20.40
8575;BME280;4325;42.520;27.448;2023-07-13T12:31:30;100886.63;;;52.64;20.38
8575;BME280;4325;42.520;27.448;2023-07-13T12:33:59;100886.25;;;52.41;21.04
8575;BME280;4325;42.520;27.448;2023-07-13T12:36:33;100888.06;;;52.44;20.92
8575;BME280;4325;42.520;27.448;2023-07-13T12:39:03;100880.34;;;52.60;20.42
8575;BME280;4325;42.520;27.448;2023-07-13T12:41:33;100883.72;;;53.37;19.92
8575;BME280;4325;42.520;27.448;2023-07-13T12:44:00;100886.47;;;54.10;19.46
8575;BME280;4325;42.520;27.448;2023-07-13T12:46:27;100892.34;;;54.59;19.02
8575;BME280;4325;42.520;27.448;2023-07-13T12:48:57;100877.25;;;54.55;18.80
8575;BME280;4325;42.520;27.448;2023-07-13T12:51:26;100869.72;;;53.77;19.90
8575;BME280;4325;42.520;27.448;2023-07-13T12:53:57;100866.50;;;53.67;19.87
8575;BME280;4325;42.520;27.448;2023-07-13T12:56:27;100863.72;;;53.82;19.42
8575;BME280;4325;42.520;27.448;2023-07-13T12:59:02;100859.66;;;53.85;19.72
8575;BME280;4325;42.520;27.448;2023-07-13T13:01:31;100859.72;;;53.39;19.31
8575;BME280;4325;42.520;27.448;2023-07-13T13:04:01;100852.50;;;53.06;19.45
8575;BME280;4325;42.520;27.448;2023-07-13T13:06:31;100848.91;;;53.00;19.52
8575;BME280;4325;42.520;27.448;2023-07-13T13:08:59;100851.59;;;52.85;19.26